Time;durP1;ratioP1;P1;durP2;ratioP2;P2;SDS_P1;SDS_P2;PMS_P1;PMS_P2;Temp;Humidity;BMP_temperature;BMP_pressure;BME280_temperature;BME280_humidity;BME280_pressure;Samples;Min_cycle;Max_cycle;Signal;HPM_P1;HPM_P2
2022/06/13 00:00:33;;;;;;;;;;;20.40;52.20;;;;;;457238;260;1261;-73
2022/06/13 00:02:35;;;;;;;;;;;20.30;52.20;;;;;;457376;260;1277;-73
2022/06/13 00:04:36;;;;;;;;;;;20.40;52.20;;;;;;457352;259;1156;-73
2022/06/13 00:06:37;;;;;;;;;;;20.40;52.00;;;;;;457209;260;1168;-73
2022/06/13 00:08:39;;;;;;;;;;;20.50;52.10;;;;;;457313;259;1199;-73
2022/06/13 00:10:40;;;;;;;;;;;20.40;52.10;;;;;;457357;259;1050;-73
2022/06/13 00:12:41;;;;;;;;;;;20.40;52.10;;;;;;457287;260;1139;-73
2022/06/13 00:14:43;;;;;;;;;;;20.50;52.20;;;;;;457329;259;2150;-72
2022/06/13 00:16:44;;;;;;;;;;;20.40;52.20;;;;;;457255;259;1206;-72
2022/06/13 00:18:47;;;;;;;;;;;20.30;52.30;;;;;;457185;259;1203;-72
2022/06/13 00:20:47;;;;;;;;;;;20.30;52.20;;;;;;457218;260;1430;-72
2022/06/13 00:22:48;;;;;;;;;;;20.30;52.50;;;;;;457268;260;1354;-72
2022/06/13 00:24:49;;;;;;;;;;;20.30;52.40;;;;;;457304;259;1168;-73
2022/06/13 00:26:51;;;;;;;;;;;20.40;52.50;;;;;;457287;259;1194;-73
2022/06/13 00:28:52;;;;;;;;;;;20.40;52.40;;;;;;457322;260;1122;-72
2022/06/13 00:30:53;;;;;;;;;;;20.30;52.60;;;;;;457271;260;1215;-73
2022/06/13 00:32:56;;;;;;;;;;;20.50;52.30;;;;;;457234;259;1189;-73
2022/06/13 00:34:56;;;;;;;;;;;20.50;52.40;;;;;;457222;260;2135;-72
2022/06/13 00:36:58;;;;;;;;;;;20.40;52.40;;;;;;457245;260;1220;-73
2022/06/13 00:38:59;;;;;;;;;;;20.50;52.40;;;;;;457282;259;1230;-73
2022/06/13 00:41:00;;;;;;;;;;;20.40;52.60;;;;;;457319;259;1179;-72
2022/06/13 00:43:02;;;;;;;;;;;20.50;52.50;;;;;;457252;260;1170;-72
2022/06/13 00:45:03;;;;;;;;;;;20.40;52.70;;;;;;457247;259;1063;-73
2022/06/13 00:47:04;;;;;;;;;;;20.30;52.70;;;;;;457340;259;1255;-73
2022/06/13 00:49:06;;;;;;;;;;;20.30;52.80;;;;;;457304;260;1071;-72
2022/06/13 00:51:07;;;;;;;;;;;20.30;52.90;;;;;;457243;259;1166;-72
2022/06/13 00:53:08;;;;;;;;;;;20.30;52.80;;;;;;457229;259;1211;-72
2022/06/13 00:55:10;;;;;;;;;;;20.40;52.80;;;;;;457250;259;2219;-72
2022/06/13 00:57:11;;;;;;;;;;;20.40;52.90;;;;;;457279;259;1186;-72
2022/06/13 00:59:12;;;;;;;;;;;20.30;53.10;;;;;;457364;259;1068;-72
2022/06/13 01:01:14;;;;;;;;;;;20.30;53.00;;;;;;457207;260;1181;-72
2022/06/13 01:03:15;;;;;;;;;;;20.40;53.00;;;;;;457340;259;1166;-72
2022/06/13 01:05:17;;;;;;;;;;;20.50;52.80;;;;;;457191;260;1268;-72
2022/06/13 01:07:18;;;;;;;;;;;20.40;52.90;;;;;;457239;259;1407;-72
2022/06/13 01:11:16;;;;;;;;;;;20.50;52.90;;;;;;457351;260;1174;-73
2022/06/13 01:11:20;;;;;;;;;;;20.60;52.40;;;;;;456078;261;1307;-73
2022/06/13 01:13:22;;;;;;;;;;;20.50;52.70;;;;;;457238;259;1219;-73
2022/06/13 01:15:23;;;;;;;;;;;20.50;52.90;;;;;;457287;260;2144;-72
2022/06/13 01:17:25;;;;;;;;;;;20.50;53.00;;;;;;457337;259;1084;-72
2022/06/13 01:19:26;;;;;;;;;;;20.40;53.00;;;;;;457378;259;1189;-72
2022/06/13 01:21:27;;;;;;;;;;;20.50;53.00;;;;;;457215;259;1143;-72
2022/06/13 01:23:28;;;;;;;;;;;20.40;53.10;;;;;;457274;260;1259;-73
2022/06/13 01:25:30;;;;;;;;;;;20.40;53.20;;;;;;457304;260;1051;-72
2022/06/13 01:27:31;;;;;;;;;;;20.40;53.20;;;;;;457238;260;1132;-72
2022/06/13 01:29:32;;;;;;;;;;;20.50;53.00;;;;;;457302;259;1094;-72
2022/06/13 01:31:36;;;;;;;;;;;20.60;52.90;;;;;;457184;260;1002;-72
2022/06/13 01:33:35;;;;;;;;;;;20.50;53.00;;;;;;457298;260;1295;-72
2022/06/13 01:35:37;;;;;;;;;;;20.50;53.10;;;;;;457263;259;2135;-73
2022/06/13 01:37:38;;;;;;;;;;;20.50;53.10;;;;;;457168;259;1246;-72
2022/06/13 01:39:39;;;;;;;;;;;20.50;53.20;;;;;;457215;260;1106;-73
2022/06/13 01:41:40;;;;;;;;;;;20.40;53.40;;;;;;457268;259;1299;-73
2022/06/13 01:43:42;;;;;;;;;;;20.40;53.40;;;;;;457252;260;1155;-73
2022/06/13 01:45:43;;;;;;;;;;;20.40;53.40;;;;;;457322;260;1308;-73
2022/06/13 01:47:45;;;;;;;;;;;20.40;53.50;;;;;;457302;260;1244;-72
2022/06/13 01:49:46;;;;;;;;;;;20.40;53.50;;;;;;457267;259;1134;-73
2022/06/13 01:51:48;;;;;;;;;;;20.30;53.50;;;;;;457239;260;1173;-73
2022/06/13 01:53:49;;;;;;;;;;;20.30;53.60;;;;;;457306;260;1144;-73
2022/06/13 01:55:50;;;;;;;;;;;20.40;53.70;;;;;;457270;260;2209;-72
2022/06/13 01:57:51;;;;;;;;;;;20.40;53.60;;;;;;457163;259;1238;-72
2022/06/13 01:59:53;;;;;;;;;;;20.40;53.60;;;;;;457399;260;1057;-72
2022/06/13 02:01:54;;;;;;;;;;;20.40;53.60;;;;;;457202;260;1239;-72
2022/06/13 02:03:55;;;;;;;;;;;20.30;53.80;;;;;;457302;260;1072;-72
2022/06/13 02:05:57;;;;;;;;;;;20.40;53.60;;;;;;457270;260;1269;-73
2022/06/13 02:07:58;;;;;;;;;;;20.30;53.90;;;;;;457196;259;1146;-73
2022/06/13 02:09:59;;;;;;;;;;;20.20;54.00;;;;;;457156;259;1147;-73
2022/06/13 02:12:01;;;;;;;;;;;20.30;53.90;;;;;;457223;260;1363;-73
2022/06/13 02:14:02;;;;;;;;;;;20.30;53.80;;;;;;457216;260;1157;-73
2022/06/13 02:16:03;;;;;;;;;;;20.40;53.70;;;;;;457212;255;2198;-72
2022/06/13 02:18:05;;;;;;;;;;;20.40;53.80;;;;;;457368;259;1351;-72
2022/06/13 02:20:06;;;;;;;;;;;20.40;53.90;;;;;;457271;260;1234;-73
2022/06/13 02:22:07;;;;;;;;;;;20.30;53.90;;;;;;457297;259;1220;-73
2022/06/13 02:24:09;;;;;;;;;;;20.30;54.10;;;;;;457316;259;1144;-73
2022/06/13 02:26:10;;;;;;;;;;;20.30;53.90;;;;;;457304;259;1202;-73
2022/06/13 02:28:11;;;;;;;;;;;20.30;54.00;;;;;;457183;260;1056;-73
2022/06/13 02:30:13;;;;;;;;;;;20.20;54.30;;;;;;457298;259;1251;-73
2022/06/13 02:32:14;;;;;;;;;;;20.20;54.20;;;;;;457270;259;1194;-73
2022/06/13 02:34:15;;;;;;;;;;;20.30;54.10;;;;;;457255;260;976;-72
2022/06/13 02:36:17;;;;;;;;;;;20.30;53.90;;;;;;457263;260;2206;-72
2022/06/13 02:38:18;;;;;;;;;;;20.30;53.90;;;;;;457367;259;1003;-73
2022/06/13 02:40:19;;;;;;;;;;;20.40;53.90;;;;;;457296;260;1149;-72
2022/06/13 02:42:21;;;;;;;;;;;20.30;53.90;;;;;;457205;260;1039;-73
2022/06/13 02:44:22;;;;;;;;;;;20.30;54.00;;;;;;457246;260;1022;-73
2022/06/13 02:46:23;;;;;;;;;;;20.40;54.00;;;;;;457216;259;1021;-73
2022/06/13 02:48:25;;;;;;;;;;;20.30;53.90;;;;;;457258;260;1044;-73
2022/06/13 02:50:26;;;;;;;;;;;20.30;54.00;;;;;;457282;259;1025;-73
2022/06/13 02:52:28;;;;;;;;;;;20.30;54.00;;;;;;457248;260;1229;-73
2022/06/13 02:54:29;;;;;;;;;;;20.30;54.00;;;;;;457272;260;1319;-73
2022/06/13 02:56:30;;;;;;;;;;;20.40;53.90;;;;;;457295;259;1066;-73
2022/06/13 02:58:32;;;;;;;;;;;20.30;54.10;;;;;;457326;259;1051;-72
2022/06/13 03:00:33;;;;;;;;;;;20.30;54.10;;;;;;457312;260;1027;-73
2022/06/13 03:02:34;;;;;;;;;;;20.30;54.10;;;;;;457178;260;1061;-73
2022/06/13 03:04:36;;;;;;;;;;;20.30;54.10;;;;;;457229;260;1001;-73
2022/06/13 03:06:38;;;;;;;;;;;20.40;54.00;;;;;;457268;259;1074;-73
2022/06/13 03:08:38;;;;;;;;;;;20.40;54.00;;;;;;457203;260;1253;-73
2022/06/13 03:10:40;;;;;;;;;;;20.30;54.00;;;;;;457318;259;1324;-73
2022/06/13 03:12:41;;;;;;;;;;;20.50;53.80;;;;;;457329;260;992;-73
2022/06/13 03:14:42;;;;;;;;;;;20.30;54.00;;;;;;457347;259;2158;-73
2022/06/13 03:16:44;;;;;;;;;;;20.30;54.00;;;;;;457261;259;1230;-73
2022/06/13 03:18:45;;;;;;;;;;;20.30;54.10;;;;;;457299;259;1131;-73
2022/06/13 03:20:47;;;;;;;;;;;20.30;54.10;;;;;;457258;260;1258;-73
2022/06/13 03:22:48;;;;;;;;;;;20.30;54.00;;;;;;457186;260;1095;-72
2022/06/13 03:24:49;;;;;;;;;;;20.30;54.10;;;;;;457256;259;1185;-72
2022/06/13 03:26:51;;;;;;;;;;;20.30;54.10;;;;;;457307;259;1055;-72
2022/06/13 03:28:52;;;;;;;;;;;20.30;54.00;;;;;;457260;259;1097;-72
2022/06/13 03:30:53;;;;;;;;;;;20.30;54.00;;;;;;457257;260;1131;-72
2022/06/13 03:35:21;;;;;;;;;;;20.40;54.00;;;;;;448511;260;2202;-73
2022/06/13 03:37:22;;;;;;;;;;;20.40;54.00;;;;;;457367;260;1109;-72
2022/06/13 03:39:24;;;;;;;;;;;20.40;53.70;;;;;;457337;259;1180;-72
2022/06/13 03:41:25;;;;;;;;;;;20.50;53.80;;;;;;457222;260;1183;-73
2022/06/13 03:43:26;;;;;;;;;;;20.50;53.80;;;;;;457272;260;1194;-73
2022/06/13 03:45:28;;;;;;;;;;;20.40;53.90;;;;;;457380;260;1240;-72
2022/06/13 03:47:29;;;;;;;;;;;20.50;53.70;;;;;;457217;260;1292;-73
2022/06/13 03:49:30;;;;;;;;;;;20.50;53.80;;;;;;457318;259;1179;-73
2022/06/13 03:51:32;;;;;;;;;;;20.60;53.60;;;;;;457204;260;1290;-72
2022/06/13 03:53:33;;;;;;;;;;;20.60;53.40;;;;;;457143;260;1131;-73
2022/06/13 03:55:35;;;;;;;;;;;20.60;53.50;;;;;;457305;260;2283;-73
2022/06/13 03:57:36;;;;;;;;;;;20.60;53.40;;;;;;457401;259;1263;-73
2022/06/13 03:59:37;;;;;;;;;;;20.60;53.30;;;;;;457174;260;1206;-73
2022/06/13 04:01:39;;;;;;;;;;;20.70;53.40;;;;;;457220;259;1174;-72
2022/06/13 04:03:40;;;;;;;;;;;20.60;53.30;;;;;;457244;260;1165;-72
2022/06/13 04:05:41;;;;;;;;;;;20.70;53.20;;;;;;457197;259;1249;-72
2022/06/13 04:07:43;;;;;;;;;;;20.70;53.30;;;;;;457226;260;1523;-72
2022/06/13 04:09:45;;;;;;;;;;;20.80;53.20;;;;;;457304;259;1130;-73
2022/06/13 04:11:45;;;;;;;;;;;20.70;53.30;;;;;;457273;260;1395;-73
2022/06/13 04:13:47;;;;;;;;;;;20.70;53.10;;;;;;457159;260;1181;-73
2022/06/13 04:15:48;;;;;;;;;;;20.70;53.40;;;;;;457198;259;2143;-73
2022/06/13 04:17:49;;;;;;;;;;;20.60;53.40;;;;;;457258;260;1294;-73
2022/06/13 04:19:51;;;;;;;;;;;20.70;53.30;;;;;;457258;259;1103;-73
2022/06/13 04:21:52;;;;;;;;;;;20.70;53.30;;;;;;457209;260;999;-73
2022/06/13 04:23:53;;;;;;;;;;;20.80;53.20;;;;;;457226;259;1122;-73
2022/06/13 04:25:55;;;;;;;;;;;20.70;53.20;;;;;;457125;260;1096;-73
2022/06/13 04:27:56;;;;;;;;;;;20.70;53.20;;;;;;457172;260;1069;-73
2022/06/13 04:29:57;;;;;;;;;;;20.70;53.20;;;;;;457180;260;1019;-73
2022/06/13 04:31:59;;;;;;;;;;;20.70;53.30;;;;;;457181;259;1159;-72
2022/06/13 04:34:00;;;;;;;;;;;20.70;53.30;;;;;;457148;259;1026;-72
2022/06/13 04:36:01;;;;;;;;;;;20.70;53.30;;;;;;457198;259;2127;-72
2022/06/13 04:38:03;;;;;;;;;;;20.80;53.30;;;;;;457252;259;1109;-72
2022/06/13 04:40:04;;;;;;;;;;;20.80;53.10;;;;;;457206;259;1081;-73
2022/06/13 04:42:05;;;;;;;;;;;20.80;53.20;;;;;;457151;259;1148;-72
2022/06/13 04:44:07;;;;;;;;;;;20.80;53.20;;;;;;457130;259;1292;-72
2022/06/13 04:46:09;;;;;;;;;;;20.70;53.30;;;;;;457039;259;1260;-72
2022/06/13 04:48:10;;;;;;;;;;;20.80;53.30;;;;;;457033;259;1128;-72
2022/06/13 04:50:11;;;;;;;;;;;20.90;53.20;;;;;;457057;260;1227;-72
2022/06/13 04:52:13;;;;;;;;;;;20.80;53.20;;;;;;457003;259;1144;-73
2022/06/13 04:54:14;;;;;;;;;;;20.70;53.40;;;;;;457016;260;1102;-73
2022/06/13 04:56:15;;;;;;;;;;;20.80;53.30;;;;;;457019;259;2186;-73
2022/06/13 04:58:17;;;;;;;;;;;20.90;53.30;;;;;;457063;260;1110;-73
2022/06/13 05:00:18;;;;;;;;;;;20.70;53.30;;;;;;457179;259;1201;-72
2022/06/13 05:02:19;;;;;;;;;;;20.80;53.20;;;;;;457029;260;1099;-72
2022/06/13 05:04:21;;;;;;;;;;;20.80;53.30;;;;;;457120;259;1240;-72
2022/06/13 05:06:22;;;;;;;;;;;20.70;53.50;;;;;;457096;259;1175;-72
2022/06/13 05:08:23;;;;;;;;;;;20.70;53.60;;;;;;457123;259;1118;-72
2022/06/13 05:10:25;;;;;;;;;;;20.70;53.60;;;;;;457206;255;1164;-72
2022/06/13 05:12:26;;;;;;;;;;;20.80;53.40;;;;;;456972;259;1161;-72
2022/06/13 05:14:27;;;;;;;;;;;20.70;53.50;;;;;;457105;259;1145;-72
2022/06/13 05:16:29;;;;;;;;;;;20.70;53.40;;;;;;456970;260;2155;-73
2022/06/13 05:18:30;;;;;;;;;;;20.80;53.30;;;;;;457092;259;1295;-72
2022/06/13 05:20:31;;;;;;;;;;;20.80;53.40;;;;;;457066;259;1191;-72
2022/06/13 05:22:33;;;;;;;;;;;20.80;53.40;;;;;;456979;259;1166;-72
2022/06/13 05:24:34;;;;;;;;;;;20.90;53.10;;;;;;456787;260;1154;-72
2022/06/13 05:26:35;;;;;;;;;;;20.90;53.20;;;;;;456819;259;1245;-73
2022/06/13 05:28:36;;;;;;;;;;;20.90;53.30;;;;;;456899;259;1068;-73
2022/06/13 05:30:38;;;;;;;;;;;20.80;53.40;;;;;;456948;259;1231;-72
2022/06/13 05:32:39;;;;;;;;;;;20.70;53.40;;;;;;456827;260;1357;-72
2022/06/13 05:34:41;;;;;;;;;;;20.70;53.50;;;;;;456876;259;1174;-72
2022/06/13 05:36:42;;;;;;;;;;;20.80;53.50;;;;;;456873;259;2147;-72
2022/06/13 05:38:43;;;;;;;;;;;20.80;53.60;;;;;;456926;259;1139;-72
2022/06/13 05:40:45;;;;;;;;;;;20.70;53.50;;;;;;456852;260;1234;-72
2022/06/13 05:42:46;;;;;;;;;;;20.70;53.40;;;;;;456813;259;1191;-72
2022/06/13 05:44:47;;;;;;;;;;;20.80;53.40;;;;;;456767;260;1189;-72
2022/06/13 05:46:49;;;;;;;;;;;20.80;53.40;;;;;;456914;260;1174;-72
2022/06/13 05:48:50;;;;;;;;;;;20.80;53.30;;;;;;456756;260;1183;-72
2022/06/13 05:50:51;;;;;;;;;;;20.80;53.30;;;;;;456779;260;1213;-72
2022/06/13 05:52:52;;;;;;;;;;;20.90;53.30;;;;;;456843;259;1117;-72
2022/06/13 05:54:54;;;;;;;;;;;20.80;53.30;;;;;;456802;260;1096;-72
2022/06/13 05:56:55;;;;;;;;;;;20.90;53.40;;;;;;456755;260;2151;-72
2022/06/13 05:58:56;;;;;;;;;;;20.90;53.50;;;;;;456856;260;1179;-72
2022/06/13 06:00:58;;;;;;;;;;;20.90;53.40;;;;;;456774;260;1080;-72
2022/06/13 06:02:59;;;;;;;;;;;21.00;53.20;;;;;;456759;260;1092;-72
2022/06/13 06:05:00;;;;;;;;;;;20.90;53.40;;;;;;456833;260;1176;-72
2022/06/13 06:07:02;;;;;;;;;;;20.80;53.30;;;;;;456733;259;1081;-72
2022/06/13 06:09:05;;;;;;;;;;;20.80;53.40;;;;;;456768;260;1094;-72
2022/06/13 06:11:04;;;;;;;;;;;20.80;53.50;;;;;;456793;260;1308;-72
2022/06/13 06:13:06;;;;;;;;;;;20.80;53.50;;;;;;456680;259;1358;-72
2022/06/13 06:15:07;;;;;;;;;;;20.80;53.50;;;;;;456714;259;1081;-72
2022/06/13 06:17:08;;;;;;;;;;;20.80;53.40;;;;;;456681;260;2195;-72
2022/06/13 06:19:10;;;;;;;;;;;20.90;53.30;;;;;;456647;260;1100;-72
2022/06/13 06:21:11;;;;;;;;;;;21.00;53.20;;;;;;456612;259;1236;-73
2022/06/13 06:23:13;;;;;;;;;;;20.90;53.20;;;;;;456538;259;1263;-72
2022/06/13 06:25:14;;;;;;;;;;;21.00;53.00;;;;;;456616;260;1104;-72
2022/06/13 06:27:16;;;;;;;;;;;21.00;53.10;;;;;;456468;260;1288;-72
2022/06/13 06:29:17;;;;;;;;;;;21.00;52.80;;;;;;456545;259;1114;-72
2022/06/13 06:31:19;;;;;;;;;;;21.00;52.90;;;;;;456596;259;1150;-72
2022/06/13 06:33:21;;;;;;;;;;;21.00;52.90;;;;;;456541;260;1273;-72
2022/06/13 06:35:22;;;;;;;;;;;20.90;53.30;;;;;;456586;259;1104;-72
2022/06/13 06:37:24;;;;;;;;;;;20.90;53.00;;;;;;456509;259;2151;-72
2022/06/13 06:39:25;;;;;;;;;;;20.90;53.10;;;;;;456389;260;1149;-72
2022/06/13 06:41:26;;;;;;;;;;;20.90;53.20;;;;;;456402;260;1339;-72
2022/06/13 06:43:28;;;;;;;;;;;20.90;53.10;;;;;;456423;260;1226;-72
2022/06/13 06:45:29;;;;;;;;;;;20.90;53.10;;;;;;456469;260;1289;-72
2022/06/13 06:47:30;;;;;;;;;;;20.90;53.20;;;;;;456506;259;1193;-72
2022/06/13 06:49:34;;;;;;;;;;;21.00;53.20;;;;;;456586;260;1254;-72
2022/06/13 06:51:33;;;;;;;;;;;20.90;53.20;;;;;;456277;260;1441;-73
2022/06/13 07:00:50;;;;;;;;;;;21.80;51.90;;;;;;456338;260;1368;-74
2022/06/13 07:02:51;;;;;;;;;;;22.30;50.20;;;;;;456277;260;1217;-74
2022/06/13 07:04:53;;;;;;;;;;;22.50;49.70;;;;;;456453;260;1303;-74
2022/06/13 07:06:54;;;;;;;;;;;22.70;49.20;;;;;;456220;260;1174;-74
2022/06/13 07:08:55;;;;;;;;;;;22.80;48.70;;;;;;456111;260;1221;-73
2022/06/13 07:11:53;;;;;;;;;;;22.80;48.90;;;;;;456219;259;1407;-74
2022/06/13 07:12:58;;;;;;;;;;;22.90;48.80;;;;;;455154;261;1259;-73
2022/06/13 07:14:59;;;;;;;;;;;22.80;49.00;;;;;;456178;259;1147;-73
2022/06/13 07:17:01;;;;;;;;;;;22.70;49.20;;;;;;456306;259;2248;-73
2022/06/13 07:19:02;;;;;;;;;;;22.80;49.20;;;;;;456357;260;1105;-73
2022/06/13 07:21:03;;;;;;;;;;;22.80;49.20;;;;;;456291;259;1146;-73
2022/06/13 07:23:05;;;;;;;;;;;22.70;49.10;;;;;;456242;259;1219;-73
2022/06/13 07:25:08;;;;;;;;;;;22.40;49.60;;;;;;456199;259;1121;-73
2022/06/13 07:27:07;;;;;;;;;;;22.20;50.00;;;;;;456232;260;1442;-73
2022/06/13 07:29:09;;;;;;;;;;;22.40;49.90;;;;;;456216;260;1174;-73
2022/06/13 07:31:10;;;;;;;;;;;22.50;49.70;;;;;;456149;260;1309;-73
2022/06/13 07:33:11;;;;;;;;;;;22.60;49.40;;;;;;456064;259;1207;-73
2022/06/13 07:35:13;;;;;;;;;;;22.60;49.40;;;;;;456200;260;1125;-73
2022/06/13 07:37:14;;;;;;;;;;;22.30;49.60;;;;;;456165;259;2210;-73
2022/06/13 07:39:15;;;;;;;;;;;22.20;50.40;;;;;;456130;259;1072;-73
2022/06/13 07:41:17;;;;;;;;;;;22.40;50.00;;;;;;456268;259;1149;-72
2022/06/13 07:43:18;;;;;;;;;;;22.50;49.60;;;;;;456252;260;1193;-73
2022/06/13 07:45:19;;;;;;;;;;;22.70;49.40;;;;;;456415;260;1094;-73
2022/06/13 07:47:21;;;;;;;;;;;22.80;49.20;;;;;;456557;259;1242;-73
2022/06/13 07:49:22;;;;;;;;;;;22.80;49.20;;;;;;456778;260;934;-73
2022/06/13 07:51:23;;;;;;;;;;;22.80;49.10;;;;;;457172;260;1176;-73
2022/06/13 07:53:25;;;;;;;;;;;22.80;49.20;;;;;;456784;260;1249;-73
2022/06/13 07:55:26;;;;;;;;;;;22.90;49.10;;;;;;457129;260;1150;-73
2022/06/13 07:57:27;;;;;;;;;;;22.80;49.10;;;;;;456660;260;2214;-73
2022/06/13 07:59:30;;;;;;;;;;;22.90;49.10;;;;;;456340;260;1237;-73
2022/06/13 08:01:31;;;;;;;;;;;22.80;49.30;;;;;;456617;259;2243;-73
2022/06/13 08:03:32;;;;;;;;;;;22.80;49.10;;;;;;456400;260;1120;-73
2022/06/13 08:05:33;;;;;;;;;;;22.80;49.30;;;;;;456346;260;1249;-73
2022/06/13 08:07:35;;;;;;;;;;;22.90;49.10;;;;;;456533;260;1233;-73
2022/06/13 08:09:36;;;;;;;;;;;23.00;48.60;;;;;;456480;259;1102;-73
2022/06/13 08:11:37;;;;;;;;;;;22.90;48.70;;;;;;456309;256;1200;-73
2022/06/13 08:13:39;;;;;;;;;;;23.00;48.70;;;;;;456108;259;1235;-73
2022/06/13 08:15:40;;;;;;;;;;;23.00;48.80;;;;;;456100;259;1105;-73
2022/06/13 08:17:41;;;;;;;;;;;22.90;48.90;;;;;;456258;255;2218;-74
2022/06/13 08:19:43;;;;;;;;;;;22.90;49.00;;;;;;456340;260;1167;-74
2022/06/13 08:21:44;;;;;;;;;;;22.90;49.00;;;;;;456223;259;1170;-74
2022/06/13 08:23:45;;;;;;;;;;;22.80;49.20;;;;;;456558;260;1164;-73
2022/06/13 08:25:47;;;;;;;;;;;22.80;49.30;;;;;;456428;260;1215;-73
2022/06/13 08:27:48;;;;;;;;;;;22.80;49.30;;;;;;456768;255;1155;-73
2022/06/13 08:29:49;;;;;;;;;;;22.90;49.10;;;;;;456617;260;1193;-74
2022/06/13 08:31:51;;;;;;;;;;;22.90;49.10;;;;;;456250;260;1090;-73
2022/06/13 08:33:53;;;;;;;;;;;22.90;49.20;;;;;;456506;259;1062;-74
2022/06/13 08:35:53;;;;;;;;;;;23.00;48.90;;;;;;456491;259;1356;-73
2022/06/13 08:37:55;;;;;;;;;;;23.00;48.80;;;;;;456409;260;2202;-73
2022/06/13 08:39:56;;;;;;;;;;;23.00;48.90;;;;;;456519;259;1129;-73
2022/06/13 08:41:58;;;;;;;;;;;23.00;48.90;;;;;;456609;259;1180;-73
2022/06/13 08:44:00;;;;;;;;;;;22.90;48.90;;;;;;456354;260;1294;-73
2022/06/13 08:46:01;;;;;;;;;;;22.90;48.90;;;;;;456323;259;1195;-73
2022/06/13 08:48:03;;;;;;;;;;;23.00;48.80;;;;;;456586;260;1196;-72
2022/06/13 08:50:04;;;;;;;;;;;23.00;48.90;;;;;;456633;259;1205;-73
2022/06/13 08:52:05;;;;;;;;;;;23.00;48.70;;;;;;456378;260;1176;-73
2022/06/13 08:54:07;;;;;;;;;;;23.10;48.80;;;;;;456345;259;1109;-73
2022/06/13 08:56:08;;;;;;;;;;;22.90;48.90;;;;;;456480;259;1301;-73
2022/06/13 08:58:09;;;;;;;;;;;22.90;49.10;;;;;;456849;259;2215;-73
2022/06/13 09:00:11;;;;;;;;;;;22.90;49.20;;;;;;456461;260;1332;-73
2022/06/13 09:02:12;;;;;;;;;;;22.90;49.00;;;;;;456343;259;1124;-73
2022/06/13 09:04:13;;;;;;;;;;;23.00;48.80;;;;;;456183;260;1288;-73
2022/06/13 09:06:15;;;;;;;;;;;23.00;48.60;;;;;;456179;260;1163;-73
2022/06/13 09:08:16;;;;;;;;;;;22.90;48.70;;;;;;456344;259;1131;-73
2022/06/13 09:10:17;;;;;;;;;;;22.90;48.90;;;;;;456374;259;1122;-73
2022/06/13 09:12:18;;;;;;;;;;;23.00;48.80;;;;;;456409;259;1171;-73
2022/06/13 09:14:20;;;;;;;;;;;23.00;48.60;;;;;;456453;259;1286;-73
2022/06/13 09:16:21;;;;;;;;;;;23.10;48.30;;;;;;456467;260;1198;-73
2022/06/13 09:18:23;;;;;;;;;;;23.10;48.20;;;;;;456306;260;2229;-73
2022/06/13 09:20:24;;;;;;;;;;;23.10;48.20;;;;;;456332;259;1276;-73
2022/06/13 09:22:26;;;;;;;;;;;23.20;48.10;;;;;;456533;260;1251;-73
2022/06/13 09:24:27;;;;;;;;;;;23.20;47.80;;;;;;456676;259;1203;-73
2022/06/13 09:26:29;;;;;;;;;;;23.10;47.90;;;;;;456495;259;1273;-73
2022/06/13 09:28:30;;;;;;;;;;;23.20;47.90;;;;;;456519;260;1284;-73
2022/06/13 09:30:31;;;;;;;;;;;23.20;47.80;;;;;;456101;259;1216;-73
2022/06/13 09:32:33;;;;;;;;;;;23.10;47.90;;;;;;456238;259;1161;-73
2022/06/13 09:34:34;;;;;;;;;;;23.00;48.00;;;;;;456008;259;1091;-73
2022/06/13 09:36:36;;;;;;;;;;;23.00;47.90;;;;;;456268;260;1118;-73
2022/06/13 09:38:37;;;;;;;;;;;23.10;47.80;;;;;;456621;260;2205;-73
2022/06/13 09:40:38;;;;;;;;;;;23.10;47.80;;;;;;456287;259;1121;-73
2022/06/13 09:42:39;;;;;;;;;;;23.10;47.70;;;;;;456394;259;1137;-73
2022/06/13 09:44:41;;;;;;;;;;;23.10;47.60;;;;;;456471;260;1083;-73
2022/06/13 09:46:42;;;;;;;;;;;23.10;47.70;;;;;;456449;260;1204;-73
2022/06/13 09:48:43;;;;;;;;;;;23.10;47.70;;;;;;456494;259;1073;-73
2022/06/13 09:50:45;;;;;;;;;;;23.00;47.80;;;;;;456459;260;1208;-73
2022/06/13 09:52:46;;;;;;;;;;;23.10;47.70;;;;;;456398;259;1112;-73
2022/06/13 09:54:47;;;;;;;;;;;23.20;47.50;;;;;;456304;259;1093;-73
2022/06/13 09:56:49;;;;;;;;;;;23.20;47.40;;;;;;456376;256;1238;-72
2022/06/13 09:58:50;;;;;;;;;;;23.10;47.40;;;;;;456396;260;2211;-73
2022/06/13 10:00:51;;;;;;;;;;;23.20;47.40;;;;;;456458;260;1168;-73
2022/06/13 10:02:53;;;;;;;;;;;23.10;47.50;;;;;;456331;260;1163;-73
2022/06/13 10:04:54;;;;;;;;;;;23.00;47.70;;;;;;456311;259;1242;-73
2022/06/13 10:06:56;;;;;;;;;;;22.90;47.90;;;;;;456281;255;1255;-73
2022/06/13 10:08:57;;;;;;;;;;;23.10;47.80;;;;;;456695;260;1105;-73
2022/06/13 10:10:58;;;;;;;;;;;23.00;48.00;;;;;;456541;259;1180;-73
2022/06/13 10:13:00;;;;;;;;;;;23.00;47.80;;;;;;456702;259;1150;-73
2022/06/13 10:15:01;;;;;;;;;;;23.20;47.30;;;;;;456335;260;1123;-72
2022/06/13 10:17:02;;;;;;;;;;;23.30;47.10;;;;;;456376;260;1214;-72
2022/06/13 10:19:04;;;;;;;;;;;22.80;47.60;;;;;;456237;260;2254;-72
2022/06/13 10:21:05;;;;;;;;;;;22.00;49.60;;;;;;456381;259;1105;-73
2022/06/13 10:23:06;;;;;;;;;;;21.60;50.80;;;;;;456428;259;1177;-73
2022/06/13 10:25:08;;;;;;;;;;;21.30;51.50;;;;;;456376;260;1199;-73
2022/06/13 10:27:09;;;;;;;;;;;21.20;52.00;;;;;;456386;260;1246;-73
2022/06/13 10:29:10;;;;;;;;;;;21.00;52.20;;;;;;456386;260;1600;-74
2022/06/13 10:31:12;;;;;;;;;;;21.00;52.40;;;;;;456393;259;1576;-73
2022/06/13 10:33:13;;;;;;;;;;;21.00;52.50;;;;;;456484;259;1199;-73
2022/06/13 10:35:14;;;;;;;;;;;20.90;52.70;;;;;;456517;260;1265;-73
2022/06/13 10:37:16;;;;;;;;;;;20.80;52.90;;;;;;456440;259;2134;-73
2022/06/13 10:39:17;;;;;;;;;;;20.70;52.90;;;;;;456378;260;1251;-73
2022/06/13 10:41:19;;;;;;;;;;;20.90;52.80;;;;;;456446;259;1200;-72
2022/06/13 10:43:20;;;;;;;;;;;21.00;52.10;;;;;;456326;260;1243;-73
2022/06/13 10:45:23;;;;;;;;;;;21.20;51.60;;;;;;456282;260;1205;-73
2022/06/13 10:47:23;;;;;;;;;;;20.90;51.90;;;;;;456672;260;1475;-73
2022/06/13 10:49:24;;;;;;;;;;;20.80;52.40;;;;;;457138;260;1161;-73
2022/06/13 10:51:26;;;;;;;;;;;20.70;52.80;;;;;;456330;259;1291;-73
2022/06/13 10:53:27;;;;;;;;;;;20.70;52.90;;;;;;456739;260;1100;-73
2022/06/13 10:55:28;;;;;;;;;;;20.80;52.40;;;;;;456717;260;1145;-73
2022/06/13 10:57:30;;;;;;;;;;;20.90;52.40;;;;;;456695;260;2202;-73
2022/06/13 10:59:31;;;;;;;;;;;20.80;52.70;;;;;;456924;259;1304;-73
2022/06/13 11:01:32;;;;;;;;;;;20.80;52.70;;;;;;456974;260;1445;-73
2022/06/13 11:03:34;;;;;;;;;;;20.80;52.60;;;;;;456678;260;1146;-72
2022/06/13 11:05:35;;;;;;;;;;;20.90;52.50;;;;;;456074;259;1146;-72
2022/06/13 11:07:36;;;;;;;;;;;20.90;52.40;;;;;;456763;259;1143;-72
2022/06/13 11:09:38;;;;;;;;;;;21.00;52.10;;;;;;456295;259;1517;-73
2022/06/13 11:11:39;;;;;;;;;;;21.00;52.10;;;;;;456480;260;1135;-73
2022/06/13 11:13:40;;;;;;;;;;;20.90;52.00;;;;;;456319;260;1284;-72
2022/06/13 11:22:46;;;;;;;;;;;20.60;53.00;;;;;;447581;260;1284;-72
2022/06/13 11:24:48;;;;;;;;;;;20.60;53.00;;;;;;456427;259;1105;-72
2022/06/13 11:29:08;;;;;;;;;;;20.60;53.10;;;;;;456417;260;1218;-72
2022/06/13 11:31:09;;;;;;;;;;;20.50;53.10;;;;;;456417;260;1128;-72
2022/06/13 11:33:11;;;;;;;;;;;20.50;53.40;;;;;;456455;259;1321;-72
2022/06/13 11:35:12;;;;;;;;;;;20.50;53.30;;;;;;456421;259;1089;-72
2022/06/13 11:37:14;;;;;;;;;;;20.50;53.30;;;;;;456434;260;1076;-72
2022/06/13 11:39:15;;;;;;;;;;;20.50;53.30;;;;;;456097;260;2271;-72
2022/06/13 11:41:16;;;;;;;;;;;20.60;53.20;;;;;;456156;259;1263;-72
2022/06/13 11:43:18;;;;;;;;;;;20.60;52.90;;;;;;456215;260;1218;-72
2022/06/13 11:45:19;;;;;;;;;;;20.50;52.80;;;;;;456122;259;1176;-72
2022/06/13 11:47:21;;;;;;;;;;;20.60;52.70;;;;;;456260;259;1440;-72
2022/06/13 11:49:23;;;;;;;;;;;20.60;52.70;;;;;;456272;259;1229;-72
2022/06/13 11:51:24;;;;;;;;;;;20.50;52.80;;;;;;456413;260;1242;-72
2022/06/13 11:53:37;;;;;;;;;;;20.50;52.90;;;;;;456603;259;1245;-72
2022/06/13 11:55:43;;;;;;;;;;;20.50;52.80;;;;;;457165;259;1081;-72
2022/06/13 11:57:40;;;;;;;;;;;20.60;52.70;;;;;;456494;260;1223;-72
2022/06/13 11:59:43;;;;;;;;;;;20.60;52.60;;;;;;456825;259;2201;-72
2022/06/13 12:01:43;;;;;;;;;;;20.60;52.60;;;;;;456110;259;1388;-72
2022/06/13 12:03:44;;;;;;;;;;;20.50;52.70;;;;;;456138;259;1248;-72
2022/06/13 12:05:45;;;;;;;;;;;20.50;52.60;;;;;;456132;259;1247;-72
2022/06/13 12:07:47;;;;;;;;;;;20.50;52.60;;;;;;456334;259;1081;-72
2022/06/13 12:09:48;;;;;;;;;;;20.50;52.70;;;;;;456175;259;1135;-72
2022/06/13 12:11:49;;;;;;;;;;;20.40;52.70;;;;;;456218;259;1175;-72
2022/06/13 12:13:51;;;;;;;;;;;20.50;52.60;;;;;;456252;259;1082;-72
2022/06/13 12:15:52;;;;;;;;;;;20.50;52.40;;;;;;456299;260;1157;-72